Tropical Cyclones
[Index]
Main Index Home Page Stock Weather Photos Extreme Storms Discussion Storm News and Storm Chasing Reports Tropical Cyclones / Hurricanes / Typhoons Weather Data and Links Wild Fires / Bushfires Weather Observation Techniques Weather Picture Catalogue Tornado Pictures and Reports Stock Video Footage and DVDs for sale
Season 1968-1969 Tropical Cyclone COLLEEN Track Map
Season 1968-1969 Summaries: [BoM-AU] [JTWC-AU] [JTWC-SIO] [JTWC-SPAC] [JTWC-SH]
<<- Previous TC | JTWC 1968-1969 Season | Next TC ->>

click for intensity scale information  Lat/long Grid: Show Hide

 Date Labels: Show Hide

Joint Typhoon Warning Centre Cyclone Data

Name: COLLEEN
Number: 696 / 6918

30 Jan 1969 00:00 UTC to 07 Feb 1969 12:00 UTC

    date/time    lat    long     hPa   cat  kts
1969-01-30 00   11.0   158.5                              
1969-01-30 06   11.6   159.4                              
1969-01-30 12   12.2   160.0                              
1969-01-30 18   12.8   160.1                              
1969-01-31 00   13.4   160.3                              
1969-01-31 06   14.2   161.6                              
1969-01-31 12   15.3   162.9                              
1969-01-31 18   16.3   163.8                              
1969-02-01 00   17.5   164.6                              
1969-02-01 06   18.9   165.4                              
1969-02-01 12   20.5   166.2                              
1969-02-01 18   22.4   166.7                              
1969-02-02 00   24.0   167.0                              
1969-02-02 06   24.9   167.9                              
1969-02-02 12   25.7   168.6                              
1969-02-02 18   26.6   168.3                              
1969-02-03 00   27.5   167.6                              
1969-02-03 06   28.2   166.8                              
1969-02-03 12   28.7   166.0                              
1969-02-03 18   29.2   165.3                              
1969-02-04 00   29.7   164.6                              
1969-02-04 06   30.1   162.4                              
1969-02-04 12   30.5   161.0                              
1969-02-04 18   30.8   162.3                              
1969-02-05 00   31.0   164.0                              
1969-02-05 06   31.6   165.7                              
1969-02-05 12   32.2   167.4                              
1969-02-05 18   32.4   169.0                              
1969-02-06 00   32.5   170.7                              
1969-02-06 06   32.7   172.9                              
1969-02-06 12   33.0   175.6                              
1969-02-06 18   33.4   178.4                              
1969-02-07 00   34.0   178.4W                             
1969-02-07 06   34.8   174.8W                             
1969-02-07 12   35.8   170.6W                             
Winds are 1-min average.

Tropical cyclone tracks developed by Michael Bath using data from the Joint Typhoon Warning Centre Best Tracks and Google Maps.


[Australian Severe Weather index] [Copyright Notice] [Email Contacts] [Search This Site] [Privacy Policy]
Document: tropical_cyclone_colleen.htm Updated: 18 September 2016